Time;durP1;ratioP1;P1;durP2;ratioP2;P2;SDS_P1;SDS_P2;PMS_P1;PMS_P2;Temp;Humidity;BMP_temperature;BMP_pressure;BME280_temperature;BME280_humidity;BME280_pressure;Samples;Min_cycle;Max_cycle;Signal;HPM_P1;HPM_P2
2022/09/29 00:00:37;;;;;;;5.43;3.42;;;;;;;6.53;100.00;99732.97;6223678;28;20094;-77
2022/09/29 00:03:39;;;;;;;5.45;3.35;;;;;;;6.54;100.00;99732.03;6223586;28;20050;-77
2022/09/29 00:06:41;;;;;;;4.93;3.13;;;;;;;6.50;100.00;99731.38;6223362;28;20509;-76
2022/09/29 00:09:43;;;;;;;5.38;3.45;;;;;;;6.48;100.00;99727.16;6223053;28;20050;-76
2022/09/29 00:12:45;;;;;;;6.28;3.33;;;;;;;6.43;100.00;99735.22;6223718;28;20057;-76
2022/09/29 00:15:56;;;;;;;4.95;3.38;;;;;;;6.45;100.00;99735.13;6222809;28;20421;-77
2022/09/29 00:18:58;;;;;;;5.45;3.38;;;;;;;6.45;100.00;99729.91;6223304;28;20054;-77
2022/09/29 00:21:59;;;;;;;4.25;2.92;;;;;;;6.44;100.00;99733.44;6222749;28;20054;-76
2022/09/29 00:25:02;;;;;;;5.93;3.30;;;;;;;6.41;100.00;99737.09;6222763;28;20392;-77
2022/09/29 00:28:04;;;;;;;6.35;3.10;;;;;;;6.41;100.00;99737.09;6222619;28;20448;-76
2022/09/29 00:31:07;;;;;;;6.80;3.53;;;;;;;6.37;100.00;99738.16;6222661;28;20061;-76
2022/09/29 00:34:08;;;;;;;12.77;4.10;;;;;;;6.33;100.00;99739.25;6222383;28;20053;-77
2022/09/29 00:37:10;;;;;;;8.60;3.17;;;;;;;6.35;100.00;99734.78;6222686;28;20046;-76
2022/09/29 00:40:13;;;;;;;5.22;3.25;;;;;;;6.35;100.00;99737.38;6222916;28;20053;-77
2022/09/29 00:43:21;;;;;;;6.28;3.47;;;;;;;6.33;100.00;99734.88;6229532;28;20053;-76
2022/09/29 00:46:33;;;;;;;4.80;2.85;;;;;;;6.34;100.00;99739.16;6240741;28;20052;-77
2022/09/29 00:49:43;;;;;;;6.72;3.58;;;;;;;6.35;100.00;99737.38;6241818;28;20049;-77
2022/09/29 00:52:49;;;;;;;5.25;2.58;;;;;;;6.37;100.00;99730.34;6235283;28;20050;-77
2022/09/29 00:55:56;;;;;;;5.32;3.08;;;;;;;6.40;100.00;99734.53;6231368;28;20508;-77
2022/09/29 00:59:02;;;;;;;4.63;2.97;;;;;;;6.45;100.00;99733.41;6231784;28;20046;-77
2022/09/29 01:02:04;;;;;;;8.90;3.20;;;;;;;6.53;100.00;99740.78;6236223;28;20041;-77
2022/09/29 01:05:12;;;;;;;9.80;3.58;;;;;;;6.54;100.00;99739.88;6233362;28;20045;-77
2022/09/29 01:08:20;;;;;;;4.63;2.85;;;;;;;6.60;100.00;99735.19;6231031;28;20042;-77
2022/09/29 01:11:23;;;;;;;8.88;3.70;;;;;;;6.62;100.00;99737.69;6230615;28;20046;-77
2022/09/29 01:14:27;;;;;;;7.85;3.47;;;;;;;6.63;100.00;99730.69;6230954;28;20054;-77
2022/09/29 01:17:28;;;;;;;6.68;3.60;;;;;;;6.61;100.00;99741.25;6230858;28;20139;-78
2022/09/29 01:20:34;;;;;;;7.60;3.75;;;;;;;6.57;100.00;99735.34;6235270;28;20050;-77
2022/09/29 01:24:08;;;;;;;7.65;4.47;;;;;;;6.57;100.00;99737.09;6235833;28;20526;-78
2022/09/29 01:27:22;;;;;;;6.90;3.20;;;;;;;6.57;100.00;99734.50;6236359;28;20049;-77
2022/09/29 01:30:39;;;;;;;7.20;3.47;;;;;;;6.50;100.00;99739.22;6235910;28;20054;-77
2022/09/29 01:33:47;;;;;;;6.72;3.50;;;;;;;6.46;100.00;99735.06;6236298;28;20057;-77
2022/09/29 01:36:59;;;;;;;12.30;4.07;;;;;;;6.39;100.00;99738.06;6236040;28;20410;-77
2022/09/29 01:40:09;;;;;;;8.35;3.67;;;;;;;6.35;100.00;99740.00;6234795;28;20160;-77
2022/09/29 01:43:16;;;;;;;7.97;4.43;;;;;;;6.28;100.00;99736.03;6234889;28;20058;-77
2022/09/29 01:46:23;;;;;;;8.20;4.00;;;;;;;6.27;100.00;99736.97;6234626;28;20060;-77
2022/09/29 01:49:30;;;;;;;5.85;3.38;;;;;;;6.28;100.00;99741.25;6235872;28;20080;-78
2022/09/29 01:52:34;;;;;;;7.53;4.40;;;;;;;6.28;100.00;99743.84;6234115;28;20417;-77
2022/09/29 01:55:42;;;;;;;7.45;3.88;;;;;;;6.24;100.00;99740.56;6234962;28;20125;-77
2022/09/29 01:58:52;;;;;;;8.55;4.38;;;;;;;6.21;100.00;99739.88;6234875;28;20046;-77
2022/09/29 02:02:01;;;;;;;7.15;3.80;;;;;;;6.19;100.00;99736.50;6235473;28;20052;-78
2022/09/29 02:05:07;;;;;;;8.27;3.72;;;;;;;6.16;100.00;99734.88;6236002;28;20425;-77
2022/09/29 02:08:13;;;;;;;8.57;4.38;;;;;;;6.14;100.00;99731.53;6234787;28;20046;-77
2022/09/29 02:11:17;;;;;;;9.27;5.03;;;;;;;6.14;100.00;99741.13;6234321;28;20421;-77
2022/09/29 02:14:22;;;;;;;10.80;4.80;;;;;;;6.10;100.00;99748.25;6234321;28;20188;-77
2022/09/29 02:17:31;;;;;;;6.80;4.03;;;;;;;6.04;100.00;99740.72;6234619;28;20716;-78
2022/09/29 02:20:33;;;;;;;7.05;4.22;;;;;;;6.04;100.00;99744.19;6234289;28;20053;-77
2022/09/29 02:23:34;;;;;;;8.63;4.47;;;;;;;6.02;100.00;99756.47;6234552;28;20077;-77
2022/09/29 02:26:36;;;;;;;8.27;4.43;;;;;;;6.00;100.00;99747.88;6232712;28;20464;-76
2022/09/29 02:29:38;;;;;;;8.55;4.07;;;;;;;6.00;100.00;99742.66;6232970;28;20049;-76
2022/09/29 02:32:41;;;;;;;9.07;4.40;;;;;;;5.98;100.00;99744.50;6232291;28;20075;-76
2022/09/29 02:35:50;;;;;;;10.20;4.53;;;;;;;6.00;100.00;99740.06;6233427;28;20045;-77
2022/09/29 02:38:57;;;;;;;9.15;4.13;;;;;;;6.00;100.00;99747.88;6228882;28;20064;-77
2022/09/29 02:42:08;;;;;;;9.32;5.43;;;;;;;6.00;100.00;99749.66;6207543;28;20428;-77
2022/09/29 02:45:29;;;;;;;8.63;4.47;;;;;;;5.97;100.00;99752.41;6206631;28;20518;-77
2022/09/29 02:48:50;;;;;;;10.30;5.10;;;;;;;5.96;100.00;99745.50;6218347;28;20058;-77
2022/09/29 02:51:57;;;;;;;9.30;3.95;;;;;;;5.91;100.00;99750.06;6225904;28;20052;-77
2022/09/29 02:55:08;;;;;;;9.98;4.78;;;;;;;5.90;100.00;99748.38;6228558;28;20517;-76
2022/09/29 02:58:15;;;;;;;9.30;4.20;;;;;;;5.91;100.00;99745.69;6226165;28;20045;-77
2022/09/29 03:01:16;;;;;;;9.55;3.85;;;;;;;5.93;100.00;99743.88;6230614;28;20057;-77
2022/09/29 03:04:22;;;;;;;8.82;4.38;;;;;;;5.92;100.00;99747.41;6229813;28;20057;-77
2022/09/29 03:07:23;;;;;;;10.15;4.65;;;;;;;5.86;100.00;99752.91;6231045;28;20494;-77
2022/09/29 03:10:24;;;;;;;11.18;4.63;;;;;;;5.91;100.00;99753.53;6230380;28;20061;-76
2022/09/29 03:13:26;;;;;;;10.07;5.05;;;;;;;5.89;100.00;99752.75;6230628;28;20085;-76
2022/09/29 03:16:27;;;;;;;12.60;5.63;;;;;;;5.90;100.00;99751.81;6230257;28;20144;-77
2022/09/29 03:19:30;;;;;;;9.05;4.00;;;;;;;5.91;100.00;99750.06;6230066;28;20054;-77
2022/09/29 03:22:32;;;;;;;11.52;5.53;;;;;;;5.85;100.00;99756.41;6230470;28;20057;-77
2022/09/29 03:25:33;;;;;;;11.38;5.22;;;;;;;5.76;100.00;99752.50;6230063;28;20045;-77
2022/09/29 03:28:36;;;;;;;12.73;5.45;;;;;;;5.71;100.00;99759.72;6230272;28;20512;-77
2022/09/29 03:31:39;;;;;;;9.93;5.40;;;;;;;5.70;100.00;99763.25;6230054;28;20140;-77
2022/09/29 03:34:42;;;;;;;9.10;5.72;;;;;;;5.72;100.00;99756.22;6230096;28;20057;-77
2022/09/29 03:37:44;;;;;;;10.77;5.57;;;;;;;5.67;100.00;99755.56;6229093;28;20046;-76
2022/09/29 03:40:45;;;;;;;10.68;4.72;;;;;;;5.69;100.00;99758.13;6228225;28;20049;-77
2022/09/29 03:43:46;;;;;;;11.07;5.55;;;;;;;5.63;100.00;99754.03;6227826;28;20057;-76
2022/09/29 03:46:48;;;;;;;12.82;5.38;;;;;;;5.58;100.00;99769.03;6228909;28;20081;-77
2022/09/29 03:49:51;;;;;;;12.05;5.38;;;;;;;5.57;100.00;99767.38;6229134;28;20057;-77
2022/09/29 03:52:52;;;;;;;7.88;4.72;;;;;;;5.55;100.00;99775.28;6228402;28;20057;-77
2022/09/29 03:55:53;;;;;;;10.98;5.97;;;;;;;5.57;100.00;99777.78;6227915;28;20053;-77
2022/09/29 03:58:55;;;;;;;11.50;5.40;;;;;;;5.60;100.00;99772.44;6228334;28;20045;-77
2022/09/29 04:01:56;;;;;;;11.10;5.22;;;;;;;5.60;100.00;99769.84;6226919;28;20498;-77
2022/09/29 04:04:59;;;;;;;14.63;6.28;;;;;;;5.58;100.00;99774.25;6228324;28;20056;-77
2022/09/29 04:08:01;;;;;;;12.18;6.00;;;;;;;5.58;100.00;99772.50;6227950;28;20042;-77
2022/09/29 04:11:03;;;;;;;10.80;5.60;;;;;;;5.57;100.00;99778.63;6227732;28;20046;-77
2022/09/29 04:14:04;;;;;;;12.13;6.03;;;;;;;5.59;100.00;99792.44;6227546;28;20052;-77
2022/09/29 04:17:06;;;;;;;17.00;7.45;;;;;;;5.60;100.00;99788.06;6227719;28;20050;-77
2022/09/29 04:20:09;;;;;;;13.50;5.75;;;;;;;5.63;100.00;99790.50;6227533;28;20065;-77
2022/09/29 04:23:11;;;;;;;11.05;5.22;;;;;;;5.69;100.00;99792.00;6227450;28;20053;-77
2022/09/29 04:26:13;;;;;;;16.15;6.13;;;;;;;5.69;100.00;99786.78;6227378;28;20057;-77
2022/09/29 04:29:14;;;;;;;18.67;7.07;;;;;;;5.71;100.00;99790.16;6226811;28;20056;-77
2022/09/29 04:32:15;;;;;;;15.07;6.00;;;;;;;5.73;100.00;99797.00;6227453;28;20057;-77
2022/09/29 04:35:18;;;;;;;13.95;6.65;;;;;;;5.75;100.00;99796.91;6226604;28;20056;-77
2022/09/29 04:38:20;;;;;;;11.40;6.90;;;;;;;5.73;100.00;99799.59;6227535;28;20057;-77
2022/09/29 04:41:21;;;;;;;12.63;6.20;;;;;;;5.74;100.00;99801.28;6192137;28;1018846;-77
2022/09/29 04:44:23;;;;;;;11.27;5.55;;;;;;;5.74;100.00;99800.44;6227813;28;20050;-77
2022/09/29 04:47:25;;;;;;;13.07;6.20;;;;;;;5.74;100.00;99797.84;6227908;28;20045;-77
2022/09/29 04:50:28;;;;;;;12.52;6.97;;;;;;;5.75;100.00;99804.72;6228010;28;20049;-77
2022/09/29 04:53:29;;;;;;;12.98;6.28;;;;;;;5.76;100.00;99807.25;6227221;28;20058;-77
2022/09/29 04:56:31;;;;;;;13.60;6.93;;;;;;;5.72;100.00;99807.47;6227737;28;20128;-77
2022/09/29 04:59:32;;;;;;;12.85;5.85;;;;;;;5.70;100.00;99806.72;6227517;28;20054;-77
2022/09/29 05:02:34;;;;;;;14.30;6.43;;;;;;;5.69;100.00;99821.50;6228423;28;20449;-78
2022/09/29 05:05:37;;;;;;;13.15;5.88;;;;;;;5.69;100.00;99818.91;6228164;28;20046;-77
2022/09/29 05:08:38;;;;;;;13.23;6.05;;;;;;;5.67;100.00;99815.50;6228069;28;20054;-77
2022/09/29 05:11:40;;;;;;;13.75;5.90;;;;;;;5.59;100.00;99815.06;6227363;28;20061;-77
2022/09/29 05:14:41;;;;;;;14.30;7.00;;;;;;;5.56;100.00;99823.84;6227119;28;20425;-77
2022/09/29 05:17:42;;;;;;;14.85;6.28;;;;;;;5.57;100.00;99824.69;6227984;28;20050;-77
2022/09/29 05:20:45;;;;;;;10.35;5.72;;;;;;;5.58;100.00;99826.38;6227849;28;20076;-77
2022/09/29 05:23:47;;;;;;;13.88;6.35;;;;;;;5.60;100.00;99828.00;6227871;28;20057;-77
2022/09/29 05:26:48;;;;;;;14.90;6.22;;;;;;;5.62;100.00;99833.13;6227707;28;20050;-77
2022/09/29 05:29:49;;;;;;;11.63;5.88;;;;;;;5.61;100.00;99828.84;6227281;28;20054;-77
2022/09/29 05:32:51;;;;;;;11.77;6.53;;;;;;;5.63;100.00;99837.44;6226796;28;20054;-77
2022/09/29 05:35:54;;;;;;;11.98;6.40;;;;;;;5.65;100.00;99835.59;6226777;28;20054;-77
2022/09/29 05:38:56;;;;;;;13.15;6.53;;;;;;;5.63;100.00;99845.25;6227763;28;20054;-77
2022/09/29 05:41:57;;;;;;;14.30;6.15;;;;;;;5.66;100.00;99842.50;6226714;28;20053;-77
2022/09/29 05:44:59;;;;;;;13.13;6.18;;;;;;;5.66;100.00;99836.44;6226668;28;20053;-77
2022/09/29 05:48:00;;;;;;;13.20;6.53;;;;;;;5.66;100.00;99845.09;6227370;28;20141;-77
2022/09/29 05:51:09;;;;;;;13.20;6.65;;;;;;;5.67;100.00;99838.97;6226579;28;20054;-78
2022/09/29 05:54:10;;;;;;;14.17;6.13;;;;;;;5.68;100.00;99845.91;6226806;28;20058;-77
2022/09/29 05:57:12;;;;;;;11.90;6.30;;;;;;;5.69;100.00;99844.97;6226423;28;20052;-77
2022/09/29 06:00:13;;;;;;;18.33;6.80;;;;;;;5.66;100.00;99845.09;6227040;28;20061;-77
2022/09/29 06:03:15;;;;;;;13.10;6.55;;;;;;;5.69;100.00;99846.75;6227090;28;20429;-78
2022/09/29 06:06:20;;;;;;;13.15;5.70;;;;;;;5.72;100.00;99844.84;6230291;28;20052;-77
2022/09/29 06:09:21;;;;;;;10.93;5.30;;;;;;;5.68;100.00;99853.72;6231266;28;20057;-77
2022/09/29 06:12:23;;;;;;;10.05;5.65;;;;;;;5.71;100.00;99852.72;6230778;28;20054;-77
2022/09/29 06:15:24;;;;;;;15.75;7.88;;;;;;;5.70;100.00;99851.03;6230314;28;20049;-77
2022/09/29 06:18:26;;;;;;;12.88;6.68;;;;;;;5.71;100.00;99847.50;6230665;28;20042;-78
2022/09/29 06:21:30;;;;;;;14.00;5.97;;;;;;;5.73;100.00;99854.34;6230285;28;20061;-77
2022/09/29 06:24:31;;;;;;;12.55;5.55;;;;;;;5.77;100.00;99845.47;6229954;28;20050;-77
2022/09/29 06:27:33;;;;;;;13.05;7.03;;;;;;;5.85;100.00;99850.28;6230328;28;20057;-76
2022/09/29 06:30:34;;;;;;;20.45;8.32;;;;;;;5.90;100.00;99852.66;6229334;28;20050;-77
2022/09/29 06:33:36;;;;;;;14.80;7.35;;;;;;;5.93;100.00;99857.78;6230454;28;20049;-77
2022/09/29 06:40:01;;;;;;;20.30;8.15;;;;;;;5.98;100.00;99856.63;6229238;28;20053;-77
2022/09/29 06:43:02;;;;;;;10.60;5.68;;;;;;;6.03;100.00;99859.00;6229609;28;20057;-77
2022/09/29 06:46:04;;;;;;;16.58;8.18;;;;;;;6.07;100.00;99869.22;6229056;28;20045;-77
2022/09/29 06:49:06;;;;;;;17.10;8.13;;;;;;;6.11;100.00;99867.31;6229965;28;20052;-77
2022/09/29 06:52:09;;;;;;;17.08;8.23;;;;;;;6.16;100.00;99867.91;6229566;28;20060;-77
2022/09/29 06:55:10;;;;;;;14.10;7.63;;;;;;;6.21;100.00;99872.91;6228726;28;20050;-77
2022/09/29 06:58:11;;;;;;;18.30;8.70;;;;;;;6.25;100.00;99874.44;6229606;28;20057;-77
2022/09/29 07:01:13;;;;;;;14.38;8.27;;;;;;;6.29;100.00;99873.38;6229715;28;20110;-78
2022/09/29 07:04:15;;;;;;;14.05;6.85;;;;;;;6.35;100.00;99871.31;6229452;28;20050;-78
2022/09/29 07:07:17;;;;;;;13.52;6.95;;;;;;;6.42;100.00;99873.63;6229832;28;20046;-78
2022/09/29 07:10:19;;;;;;;16.65;8.25;;;;;;;6.48;100.00;99874.13;6229654;28;20060;-78
2022/09/29 07:13:21;;;;;;;18.40;8.88;;;;;;;6.53;100.00;99882.59;6229438;28;20137;-76
2022/09/29 07:16:23;;;;;;;14.23;7.32;;;;;;;6.59;100.00;99881.44;6225746;28;20057;-78
2022/09/29 07:19:24;;;;;;;17.15;8.15;;;;;;;6.64;100.00;99883.81;6223449;28;20061;-78
2022/09/29 07:22:27;;;;;;;16.35;8.13;;;;;;;6.69;100.00;99881.81;6228213;28;20050;-77
2022/09/29 07:25:29;;;;;;;20.77;10.55;;;;;;;6.75;100.00;99879.72;6226794;28;20062;-77
2022/09/29 07:28:30;;;;;;;17.63;8.85;;;;;;;6.83;100.00;99881.94;6227491;28;20046;-78
2022/09/29 07:31:32;;;;;;;15.98;8.30;;;;;;;6.87;100.00;99883.47;6228211;28;20117;-78
2022/09/29 07:34:33;;;;;;;25.20;10.82;;;;;;;6.91;100.00;99878.94;6231513;28;20046;-77
2022/09/29 07:37:36;;;;;;;21.80;10.18;;;;;;;6.96;100.00;99884.78;6230124;28;20041;-78
2022/09/29 07:40:37;;;;;;;21.90;9.93;;;;;;;6.99;100.00;99880.22;6229568;28;20429;-79
2022/09/29 07:43:40;;;;;;;22.77;11.23;;;;;;;7.05;100.00;99885.13;6231793;28;20046;-78
2022/09/29 07:46:41;;;;;;;20.70;9.60;;;;;;;7.11;100.00;99897.03;6230176;28;20073;-78
2022/09/29 07:49:42;;;;;;;19.25;9.40;;;;;;;7.20;100.00;99893.91;6227472;28;20054;-77
2022/09/29 07:52:45;;;;;;;23.17;10.95;;;;;;;7.26;100.00;99898.81;6228327;28;20409;-78
2022/09/29 07:55:46;;;;;;;25.75;10.02;;;;;;;7.33;100.00;99902.78;6227745;28;20057;-76
2022/09/29 07:58:50;;;;;;;19.85;9.48;;;;;;;7.43;100.00;99897.91;6225618;28;20034;-76
2022/09/29 08:01:51;;;;;;;23.50;10.40;;;;;;;7.50;100.00;99896.66;6224382;28;20050;-77
2022/09/29 08:04:53;;;;;;;27.42;11.38;;;;;;;7.60;100.00;99907.47;6225471;28;20215;-77
2022/09/29 08:07:56;;;;;;;22.27;9.88;;;;;;;7.71;100.00;99906.88;6226624;28;20046;-78
2022/09/29 08:11:02;;;;;;;25.02;11.18;;;;;;;7.76;100.00;99921.38;6228780;28;20056;-78
2022/09/29 08:14:04;;;;;;;25.05;10.55;;;;;;;7.85;100.00;99920.88;6228353;28;20046;-77
2022/09/29 08:17:05;;;;;;;24.02;10.45;;;;;;;7.96;100.00;99927.28;6226086;28;20055;-75
2022/09/29 08:20:07;;;;;;;27.95;11.40;;;;;;;8.10;100.00;99929.97;6227157;28;20050;-75
2022/09/29 08:23:10;;;;;;;21.42;10.15;;;;;;;8.24;100.00;99916.94;6226817;28;20529;-76
2022/09/29 08:26:14;;;;;;;25.05;11.45;;;;;;;8.30;100.00;99931.47;6227293;28;20143;-74
2022/09/29 08:29:15;;;;;;;28.05;10.63;;;;;;;8.40;100.00;99935.25;6225475;28;20053;-76
2022/09/29 08:32:16;;;;;;;30.67;11.25;;;;;;;8.51;100.00;99943.34;6227326;28;20057;-75
2022/09/29 08:35:18;;;;;;;26.25;11.70;;;;;;;8.61;100.00;99941.06;6227882;28;20494;-76
2022/09/29 08:38:20;;;;;;;28.02;11.80;;;;;;;8.67;100.00;99950.31;6225439;28;20056;-76
2022/09/29 08:41:32;;;;;;;24.83;10.93;;;;;;;8.75;100.00;99945.47;6224254;28;20058;-75
2022/09/29 08:44:38;;;;;;;24.77;10.35;;;;;;;8.80;100.00;99946.88;6223418;28;20517;-75
2022/09/29 08:47:44;;;;;;;22.50;11.15;;;;;;;8.87;100.00;99950.84;6223464;28;20053;-73
2022/09/29 08:50:55;;;;;;;25.98;10.27;;;;;;;8.94;100.00;99956.56;6222353;28;20434;-76
2022/09/29 08:54:02;;;;;;;22.15;10.10;;;;;;;8.92;100.00;99957.59;6222494;28;20053;-74
2022/09/29 08:57:05;;;;;;;24.55;11.43;;;;;;;8.96;100.00;99962.56;6222961;28;20644;-74
2022/09/29 09:00:11;;;;;;;22.02;9.52;;;;;;;9.00;100.00;99966.69;6222349;28;20052;-75
2022/09/29 09:03:36;;;;;;;23.35;11.23;;;;;;;9.06;100.00;99960.25;6222419;28;20060;-74
2022/09/29 09:06:53;;;;;;;20.70;9.13;;;;;;;9.13;100.00;99965.03;6223024;28;20069;-74
2022/09/29 09:10:06;;;;;;;23.13;9.23;;;;;;;9.24;100.00;99972.25;6222935;28;20184;-75
2022/09/29 09:13:22;;;;;;;23.50;11.15;;;;;;;9.40;100.00;99966.91;6223490;28;20050;-75
2022/09/29 09:16:33;;;;;;;22.02;10.05;;;;;;;9.45;100.00;99972.72;6222932;28;20061;-75
2022/09/29 09:19:58;;;;;;;20.08;9.95;;;;;;;9.55;100.00;99973.00;6222646;28;20049;-76
2022/09/29 09:23:01;;;;;;;25.02;10.70;;;;;;;9.62;100.00;99974.28;6222335;28;20057;-74
2022/09/29 09:26:05;;;;;;;19.92;9.45;;;;;;;9.70;100.00;99973.84;6221686;28;20050;-74
2022/09/29 09:29:16;;;;;;;17.65;7.97;;;;;;;9.75;100.00;99969.97;6222075;28;20050;-74
2022/09/29 09:32:22;;;;;;;21.27;9.07;;;;;;;9.85;100.00;99972.88;6222195;28;20050;-74
2022/09/29 09:35:31;;;;;;;15.88;8.32;;;;;;;9.89;100.00;99967.31;6221657;28;20054;-74
2022/09/29 09:38:48;;;;;;;16.23;7.78;;;;;;;9.95;100.00;99967.88;6222060;28;20042;-75
2022/09/29 09:41:55;;;;;;;16.92;8.43;;;;;;;9.95;100.00;99962.63;6226610;28;20053;-74
2022/09/29 09:45:03;;;;;;;17.60;8.20;;;;;;;10.07;100.00;99961.84;6227577;28;20099;-74
2022/09/29 09:48:12;;;;;;;17.45;7.20;;;;;;;10.16;100.00;99969.97;6226556;28;20410;-76
2022/09/29 09:51:35;;;;;;;17.70;7.43;;;;;;;10.29;100.00;99969.22;6226762;28;20054;-74
2022/09/29 09:54:41;;;;;;;13.93;7.90;;;;;;;10.34;100.00;99977.66;6227726;28;20425;-74
2022/09/29 09:58:02;;;;;;;14.63;7.43;;;;;;;10.51;100.00;99974.78;6227224;28;20049;-74
2022/09/29 10:01:06;;;;;;;16.70;7.53;;;;;;;10.65;100.00;99968.63;6225851;28;20065;-73
2022/09/29 10:04:12;;;;;;;19.15;7.47;;;;;;;10.68;100.00;99972.84;6227629;28;20417;-74
2022/09/29 10:07:14;;;;;;;20.60;6.82;;;;;;;10.79;100.00;99976.41;6226960;28;20053;-74
2022/09/29 10:10:19;;;;;;;13.88;6.45;;;;;;;10.92;100.00;99979.06;6225408;28;20049;-75
2022/09/29 10:13:24;;;;;;;14.25;6.55;;;;;;;10.90;100.00;99981.81;6225732;28;20421;-73
2022/09/29 10:16:32;;;;;;;15.00;6.80;;;;;;;10.91;100.00;99975.63;6225299;28;20053;-73
2022/09/29 10:19:53;;;;;;;12.52;6.72;;;;;;;11.02;100.00;99974.03;6227470;28;20053;-74
2022/09/29 10:23:18;;;;;;;15.00;6.32;;;;;;;11.05;100.00;99974.69;6232846;28;20060;-72
2022/09/29 10:26:24;;;;;;;10.80;5.60;;;;;;;11.16;100.00;99974.78;6228124;28;20057;-77
2022/09/29 10:29:31;;;;;;;10.45;5.25;;;;;;;11.35;100.00;99976.16;6225153;28;20057;-74
2022/09/29 10:32:36;;;;;;;11.45;5.60;;;;;;;11.32;100.00;99969.31;6225090;28;20443;-77
2022/09/29 10:35:41;;;;;;;11.50;5.03;;;;;;;11.33;100.00;99976.25;6224355;28;20441;-77
2022/09/29 10:38:47;;;;;;;9.82;5.05;;;;;;;11.38;100.00;99974.16;6225276;28;20053;-77
2022/09/29 10:41:53;;;;;;;8.13;4.10;;;;;;;11.46;100.00;99973.63;6218004;28;20068;-75
2022/09/29 10:45:02;;;;;;;10.30;4.15;;;;;;;11.60;100.00;99981.41;6226684;28;20053;-76
2022/09/29 10:48:09;;;;;;;7.35;4.43;;;;;;;11.75;100.00;99973.38;6226393;28;20042;-77
2022/09/29 10:51:22;;;;;;;9.38;5.07;;;;;;;11.91;100.00;99980.13;6225160;28;20046;-78
2022/09/29 10:54:25;;;;;;;7.18;3.75;;;;;;;11.92;100.00;99981.78;6221920;28;20466;-78
2022/09/29 10:57:30;;;;;;;6.50;4.20;;;;;;;11.98;100.00;99977.03;6222119;28;20058;-79
2022/09/29 11:00:36;;;;;;;5.45;3.28;;;;;;;12.06;100.00;99972.91;6224033;28;20529;-77
2022/09/29 11:03:40;;;;;;;4.18;2.80;;;;;;;12.07;99.96;99981.66;6201701;28;20046;-78
2022/09/29 11:06:41;;;;;;;5.85;2.88;;;;;;;12.12;98.30;99980.34;6201529;28;20069;-78
2022/09/29 11:09:44;;;;;;;4.70;3.17;;;;;;;12.13;97.99;99976.78;6205715;28;20053;-78
2022/09/29 11:12:47;;;;;;;3.47;2.10;;;;;;;11.82;98.24;99990.44;6225803;28;20045;-78
2022/09/29 11:15:50;;;;;;;4.40;1.88;;;;;;;11.74;98.96;99992.75;6225095;28;20136;-79
2022/09/29 11:18:56;;;;;;;3.75;2.15;;;;;;;11.79;97.49;99985.38;6225953;28;20050;-79
2022/09/29 11:22:20;;;;;;;4.75;2.35;;;;;;;12.09;98.77;99990.28;6225368;28;20048;-79
2022/09/29 11:25:37;;;;;;;6.45;2.97;;;;;;;12.23;94.23;99984.03;6224938;28;20417;-79
2022/09/29 11:29:07;;;;;;;3.22;1.98;;;;;;;12.51;94.26;99991.59;6228431;28;20425;-77
2022/09/29 11:32:24;;;;;;;3.25;2.08;;;;;;;12.76;93.96;99989.78;6230272;28;20050;-77
2022/09/29 11:35:39;;;;;;;5.57;2.95;;;;;;;12.65;93.32;99998.50;6235710;28;20058;-78
2022/09/29 11:38:57;;;;;;;4.68;2.83;;;;;;;12.73;91.89;100000.56;6230066;28;20053;-79
2022/09/29 11:42:10;;;;;;;5.27;2.97;;;;;;;13.34;88.98;99995.94;6259289;23;20053;-73
2022/09/29 11:45:17;;;;;;;5.65;2.80;;;;;;;13.26;86.77;99987.78;6247631;28;20045;-73
2022/09/29 11:48:38;;;;;;;5.43;3.05;;;;;;;13.12;86.80;99994.06;6247755;28;20139;-72
2022/09/29 11:52:02;;;;;;;6.50;2.90;;;;;;;13.23;87.34;99991.50;6233240;28;20049;-72
2022/09/29 11:55:19;;;;;;;5.60;3.08;;;;;;;13.32;86.18;100004.00;6223139;28;20149;-73
2022/09/29 11:58:35;;;;;;;5.90;2.80;;;;;;;13.09;86.25;99994.34;6223196;28;20050;-73
2022/09/29 12:01:51;;;;;;;3.80;2.50;;;;;;;12.85;88.90;100002.28;6233307;28;20049;-74
2022/09/29 12:05:04;;;;;;;4.18;2.40;;;;;;;12.63;93.29;99992.50;6243283;28;20421;-73
2022/09/29 12:08:18;;;;;;;4.43;2.80;;;;;;;12.42;93.23;100006.28;6248040;28;20505;-74
2022/09/29 12:11:28;;;;;;;5.75;2.60;;;;;;;12.41;94.13;100012.50;6256230;28;20049;-72
2022/09/29 12:14:37;;;;;;;4.35;2.42;;;;;;;12.34;95.68;100007.78;6251461;28;20037;-74
2022/09/29 12:17:42;;;;;;;4.63;2.45;;;;;;;12.26;93.88;100013.59;6251410;28;20059;-73
2022/09/29 12:20:48;;;;;;;3.65;2.20;;;;;;;12.53;94.94;100004.66;6249537;28;20179;-74
2022/09/29 12:23:50;;;;;;;2.70;1.63;;;;;;;12.86;91.65;100002.19;6249196;28;20056;-73
2022/09/29 12:26:52;;;;;;;1.67;1.00;;;;;;;13.52;87.03;100009.53;6241944;28;20394;-71
2022/09/29 12:29:56;;;;;;;1.65;1.27;;;;;;;13.96;80.73;100000.78;6251241;28;20067;-72
2022/09/29 12:33:05;;;;;;;4.25;1.15;;;;;;;14.34;80.48;100000.34;6247444;28;20046;-74
2022/09/29 12:36:49;;;;;;;1.48;0.80;;;;;;;14.57;73.73;100005.59;6250697;28;20056;-73
2022/09/29 12:40:00;;;;;;;1.05;0.85;;;;;;;14.70;74.83;99998.31;6251587;28;20070;-73
2022/09/29 12:43:09;;;;;;;1.92;1.25;;;;;;;15.01;73.91;100001.06;6253719;28;20049;-73
2022/09/29 12:46:18;;;;;;;2.35;0.95;;;;;;;15.11;76.15;99986.94;6271058;28;20045;-73
2022/09/29 12:49:24;;;;;;;2.30;1.08;;;;;;;15.37;74.58;99990.03;6264723;28;20056;-75
2022/09/29 12:52:33;;;;;;;1.58;1.10;;;;;;;15.40;70.32;99991.59;6246322;28;20053;-73
2022/09/29 12:55:43;;;;;;;3.28;1.23;;;;;;;15.46;70.33;99989.22;6246652;28;20049;-74
2022/09/29 12:58:52;;;;;;;1.15;0.80;;;;;;;15.39;68.80;100001.31;6246586;28;20065;-73
2022/09/29 13:01:56;;;;;;;0.90;0.80;;;;;;;15.57;69.34;99992.75;6246434;28;20080;-74
2022/09/29 13:05:16;;;;;;;1.60;0.93;;;;;;;15.42;65.52;99993.09;6246183;28;20060;-75
2022/09/29 13:08:39;;;;;;;1.73;0.85;;;;;;;15.33;64.68;99993.06;6246728;28;20663;-75
2022/09/29 13:11:59;;;;;;;1.83;0.70;;;;;;;15.65;65.31;100001.75;6246101;28;20575;-74
2022/09/29 13:15:19;;;;;;;1.75;1.00;;;;;;;15.75;67.15;100000.94;6248142;28;20083;-73
2022/09/29 13:18:39;;;;;;;0.90;0.55;;;;;;;16.01;64.14;99999.53;6251592;28;20485;-72
2022/09/29 13:21:50;;;;;;;1.35;0.80;;;;;;;16.37;61.21;100010.50;6250906;28;20061;-74
2022/09/29 13:25:01;;;;;;;0.77;0.60;;;;;;;16.11;59.69;100005.69;6251033;28;20520;-74
2022/09/29 13:28:12;;;;;;;2.00;0.98;;;;;;;16.14;64.76;100007.22;6248395;28;20057;-74
2022/09/29 13:31:17;;;;;;;1.83;0.70;;;;;;;16.24;64.17;99997.47;6251162;28;20050;-74
2022/09/29 13:34:30;;;;;;;4.18;1.42;;;;;;;16.10;61.45;100005.81;6246321;28;20470;-73
2022/09/29 13:37:42;;;;;;;1.25;0.98;;;;;;;16.13;64.79;100005.56;6251116;28;20053;-75
2022/09/29 13:41:34;;;;;;;2.70;1.40;;;;;;;16.54;64.56;100006.34;6250755;28;20398;-74
2022/09/29 13:44:35;;;;;;;1.75;0.90;;;;;;;16.63;64.57;100002.84;6250748;28;20049;-73
2022/09/29 13:47:45;;;;;;;3.85;1.95;;;;;;;16.51;69.20;100010.09;6250601;28;20045;-74
2022/09/29 13:50:48;;;;;;;2.92;2.10;;;;;;;15.96;71.05;100012.34;6250069;28;20045;-74
2022/09/29 13:54:21;;;;;;;3.97;2.25;;;;;;;15.34;74.76;100021.22;6250574;28;20057;-74
2022/09/29 13:57:24;;;;;;;3.90;1.90;;;;;;;14.85;76.33;100012.06;6250624;28;20049;-73
2022/09/29 14:00:32;;;;;;;5.07;2.17;;;;;;;14.60;76.51;100022.03;6250355;28;20065;-74
2022/09/29 14:03:34;;;;;;;5.47;2.88;;;;;;;14.39;76.66;100016.66;6245620;28;20052;-74
2022/09/29 14:06:46;;;;;;;3.97;1.98;;;;;;;14.30;79.39;100022.69;6249720;28;20053;-74
2022/09/29 14:09:48;;;;;;;8.27;2.17;;;;;;;14.32;76.66;100020.78;6244217;28;20046;-73
2022/09/29 14:12:58;;;;;;;2.50;1.50;;;;;;;14.46;73.04;100025.78;6245044;28;20045;-73
2022/09/29 14:16:14;;;;;;;3.35;1.35;;;;;;;14.87;74.09;100021.59;6238509;28;20057;-74
2022/09/29 14:19:34;;;;;;;1.98;1.00;;;;;;;15.21;68.33;100016.09;6241407;28;20049;-74
2022/09/29 14:22:54;;;;;;;0.60;0.60;;;;;;;15.24;62.40;100013.22;6242851;28;20489;-74
2022/09/29 14:25:56;;;;;;;2.97;0.52;;;;;;;15.59;61.06;100012.03;6243365;28;20521;-74
2022/09/29 14:29:02;;;;;;;0.68;0.50;;;;;;;15.33;63.21;100011.59;6250054;28;20052;-75
2022/09/29 14:32:04;;;;;;;0.70;0.50;;;;;;;15.16;65.91;100010.34;6244810;28;20049;-75